Bridgwater, United Kingdom
Current Conditions -  °F | °C
As of 4:50 AM on Sunday 21 Dec 2014 (Local Time) from EGDY Reporting Station
Broken Clouds Broken Clouds  
Wind Chill: 42°   Ceiling: 2200
Heat Index: 46°   Visibility: 6mi
Dew Point: 43°   Wind: 9mph
Humidity: 87%   Direction: 220°SW
Pressure: 30.42"   Gusts: NA
Location:  51.13°N, 3°W
Report Text: EGDY 210450Z AUTO 22008KT 9999 SCT018/// BKN022/// 08/06 Q1030
Loading
Personal Weather Stations






























Interactive Weather Map New forecast layout! Learn more

10-Day Weather Forecast

Advertisements
Track Severe Weather on mobile